createdAt,value
2023-04-21T00:01:55.109Z,16.02
2023-04-21T00:04:22.629Z,16.60
2023-04-21T00:06:50.566Z,17.98
2023-04-21T00:09:18.706Z,17.70
2023-04-21T00:11:46.019Z,20.60
2023-04-21T00:14:12.916Z,25.27
2023-04-21T00:16:39.715Z,19.73
2023-04-21T00:19:07.373Z,22.23
2023-04-21T00:21:35.316Z,17.13
2023-04-21T00:24:02.713Z,18.58
2023-04-21T00:26:29.895Z,17.17
2023-04-21T00:28:56.675Z,16.20
2023-04-21T00:31:23.766Z,18.92
2023-04-21T00:33:50.643Z,20.77
2023-04-21T00:36:17.602Z,19.00
2023-04-21T00:38:45.020Z,22.40
2023-04-21T00:41:11.770Z,22.92
2023-04-21T00:43:58.441Z,21.15
2023-04-21T00:46:25.623Z,19.92
2023-04-21T00:48:52.357Z,18.10
2023-04-21T00:51:19.921Z,16.75
2023-04-21T00:53:47.352Z,18.67
2023-04-21T00:56:14.579Z,18.52
2023-04-21T00:58:42.896Z,17.08
2023-04-21T01:01:09.661Z,18.70
2023-04-21T01:03:36.596Z,17.98
2023-04-21T01:06:03.674Z,16.50
2023-04-21T01:08:31.227Z,19.30
2023-04-21T01:10:57.976Z,16.50
2023-04-21T01:13:25.762Z,18.85
2023-04-21T01:15:52.563Z,18.40
2023-04-21T01:18:19.502Z,15.68
2023-04-21T01:20:46.526Z,15.70
2023-04-21T01:23:13.211Z,18.52
2023-04-21T01:25:41.941Z,15.23
2023-04-21T01:28:08.649Z,15.40
2023-04-21T01:30:35.516Z,15.90
2023-04-21T01:33:02.476Z,19.10
2023-04-21T01:35:29.906Z,16.75
2023-04-21T01:37:56.706Z,19.42
2023-04-21T01:40:23.674Z,15.57
2023-04-21T01:42:50.500Z,20.52
2023-04-21T01:45:19.229Z,21.13
2023-04-21T01:47:46.284Z,19.80
2023-04-21T01:50:14.406Z,20.50
2023-04-21T01:52:41.850Z,16.08
2023-04-21T01:55:09.237Z,17.05
2023-04-21T01:57:36.396Z,21.98
2023-04-21T02:00:04.769Z,19.80
2023-04-21T02:02:31.969Z,20.67
2023-04-21T02:05:00.902Z,19.80
2023-04-21T02:07:28.484Z,21.02
2023-04-21T02:09:55.272Z,19.15
2023-04-21T02:12:22.491Z,19.23
2023-04-21T02:14:49.470Z,18.65
2023-04-21T02:17:17.466Z,18.92
2023-04-21T02:19:45.451Z,16.35
2023-04-21T02:22:12.945Z,15.77
2023-04-21T02:24:39.921Z,12.65
2023-04-21T02:27:07.021Z,15.18
2023-04-21T02:29:33.938Z,17.83
2023-04-21T02:32:07.815Z,19.63
2023-04-21T02:37:11.759Z,17.58
2023-04-21T02:39:38.697Z,15.63
2023-04-21T02:42:05.496Z,15.63
2023-04-21T02:44:33.406Z,19.73
2023-04-21T02:47:00.508Z,16.67
2023-04-21T02:49:27.488Z,21.13
2023-04-21T02:51:55.133Z,24.48
2023-04-21T02:54:21.906Z,21.15
2023-04-21T02:56:49.418Z,21.50
2023-04-21T02:59:16.881Z,20.15
2023-04-21T03:01:44.223Z,18.92
2023-04-21T03:04:11.067Z,22.00
2023-04-21T03:06:37.916Z,18.15
2023-04-21T03:09:04.851Z,15.70
2023-04-21T03:11:31.946Z,14.75
2023-04-21T03:13:58.717Z,15.15
2023-04-21T03:16:25.741Z,16.75
2023-04-21T03:18:52.530Z,16.98
2023-04-21T03:21:19.303Z,14.07
2023-04-21T03:23:46.017Z,17.23
2023-04-21T03:26:12.811Z,17.00
2023-04-21T03:28:39.528Z,17.58
2023-04-21T03:31:06.292Z,15.70
2023-04-21T03:33:33.422Z,16.13
2023-04-21T03:36:00.482Z,15.65
2023-04-21T03:38:29.215Z,15.13
2023-04-21T03:40:55.958Z,16.65
2023-04-21T03:43:23.283Z,14.30
2023-04-21T03:45:50.152Z,16.95
2023-04-21T03:48:16.960Z,16.77
2023-04-21T03:50:43.732Z,20.75
2023-04-21T03:53:10.791Z,19.02
2023-04-21T03:55:38.261Z,17.67
2023-04-21T03:58:05.541Z,21.20
2023-04-21T04:00:32.253Z,17.42
2023-04-21T04:02:59.159Z,20.52
2023-04-21T04:05:26.481Z,17.17
2023-04-21T04:07:53.326Z,17.98
2023-04-21T04:10:21.023Z,17.13
2023-04-21T04:12:48.053Z,18.30
2023-04-21T04:15:15.699Z,17.65
2023-04-21T04:17:42.927Z,19.08
2023-04-21T04:20:09.871Z,19.63
2023-04-21T04:22:37.210Z,21.92
2023-04-21T04:25:05.239Z,22.95
2023-04-21T04:27:32.390Z,17.50
2023-04-21T04:29:59.247Z,17.38
2023-04-21T04:32:29.252Z,17.33
2023-04-21T04:34:56.224Z,18.33
2023-04-21T04:37:22.999Z,16.25
2023-04-21T04:39:53.235Z,15.38
2023-04-21T04:42:20.326Z,15.82
2023-04-21T04:44:48.134Z,14.85
2023-04-21T04:47:15.343Z,18.15
2023-04-21T04:49:42.449Z,16.08
2023-04-21T04:52:09.249Z,15.45
2023-04-21T04:54:36.312Z,15.38
2023-04-21T04:57:03.313Z,15.68
2023-04-21T04:59:31.003Z,15.32
2023-04-21T05:01:58.180Z,16.15
2023-04-21T05:04:26.241Z,16.35
2023-04-21T05:06:53.601Z,14.18
2023-04-21T05:09:20.706Z,19.63
2023-04-21T05:11:47.883Z,17.52
2023-04-21T05:14:16.205Z,18.95
2023-04-21T05:16:46.157Z,16.92
2023-04-21T05:19:12.932Z,16.13
2023-04-21T05:21:39.748Z,15.75
2023-04-21T05:24:06.735Z,18.05
2023-04-21T05:26:33.446Z,20.13
2023-04-21T05:29:00.256Z,20.10
2023-04-21T05:31:27.242Z,25.52
2023-04-21T05:33:54.047Z,33.22
2023-04-21T05:36:20.801Z,43.08
2023-04-21T05:38:47.637Z,72.60
2023-04-21T05:41:15.119Z,51.53
2023-04-21T05:43:41.919Z,39.35
2023-04-21T05:46:10.924Z,36.58
2023-04-21T05:48:37.712Z,30.55
2023-04-21T05:51:11.455Z,33.50
2023-04-21T05:53:42.895Z,29.48
2023-04-21T05:56:11.346Z,27.48
2023-04-21T05:58:38.818Z,30.10
2023-04-21T06:01:06.480Z,23.92
2023-04-21T06:03:33.773Z,23.65
2023-04-21T06:06:02.585Z,20.30
2023-04-21T06:08:29.769Z,20.83
2023-04-21T06:10:56.592Z,23.88
2023-04-21T06:13:23.405Z,17.30
2023-04-21T06:15:50.138Z,19.73
2023-04-21T06:18:17.108Z,23.42
2023-04-21T06:20:50.914Z,21.50
2023-04-21T06:23:17.963Z,23.08
2023-04-21T06:25:44.844Z,26.30
2023-04-21T06:28:11.645Z,32.33
2023-04-21T06:30:38.363Z,31.70
2023-04-21T06:33:06.661Z,28.23
2023-04-21T06:35:34.094Z,29.00
2023-04-21T06:38:01.007Z,27.02
2023-04-21T06:40:27.761Z,25.05
2023-04-21T06:42:54.501Z,33.75
2023-04-21T06:45:22.190Z,28.27
2023-04-21T06:47:49.043Z,30.77
2023-04-21T06:50:16.360Z,36.47
2023-04-21T06:52:43.201Z,30.75
2023-04-21T06:55:10.326Z,29.42
2023-04-21T06:57:37.755Z,29.17
2023-04-21T07:00:05.935Z,28.45
2023-04-21T07:02:32.925Z,25.33
2023-04-21T07:05:01.217Z,30.00
2023-04-21T07:07:28.029Z,24.25
2023-04-21T07:09:54.830Z,28.60
2023-04-21T07:12:21.877Z,28.27
2023-04-21T07:14:48.696Z,28.45
2023-04-21T07:17:15.615Z,26.42
2023-04-21T07:19:42.489Z,25.55
2023-04-21T07:22:09.225Z,24.85
2023-04-21T07:24:37.326Z,20.80
2023-04-21T07:27:04.320Z,20.25
2023-04-21T07:29:31.893Z,27.30
2023-04-21T07:31:58.884Z,18.23
2023-04-21T07:34:25.848Z,15.68
2023-04-21T07:36:54.813Z,19.50
2023-04-21T07:39:22.675Z,18.00
2023-04-21T07:41:49.614Z,15.68
2023-04-21T07:44:16.407Z,15.15
2023-04-21T07:46:43.828Z,14.93
2023-04-21T07:49:10.927Z,16.63
2023-04-21T07:51:37.705Z,16.83
2023-04-21T07:54:04.749Z,13.25
2023-04-21T07:56:31.772Z,12.60
2023-04-21T07:58:58.557Z,13.07
2023-04-21T08:01:25.559Z,12.65
2023-04-21T08:03:52.468Z,12.63
2023-04-21T08:06:20.243Z,11.43
2023-04-21T08:08:48.330Z,13.05
2023-04-21T08:11:15.334Z,11.52
2023-04-21T08:13:42.090Z,12.93
2023-04-21T08:16:09.191Z,11.85
2023-04-21T08:18:36.605Z,12.18
2023-04-21T08:21:03.425Z,14.85
2023-04-21T08:23:33.421Z,11.38
2023-04-21T08:26:01.990Z,12.57
2023-04-21T08:28:29.201Z,11.05
2023-04-21T08:30:55.902Z,9.70
2023-04-21T08:33:23.054Z,12.10
2023-04-21T08:36:02.504Z,12.20
2023-04-21T08:38:33.264Z,11.30
2023-04-21T08:41:00.612Z,13.20
2023-04-21T08:43:29.076Z,12.32
2023-04-21T08:45:56.310Z,11.02
2023-04-21T08:48:25.011Z,9.80
2023-04-21T08:50:53.640Z,11.20
2023-04-21T08:53:20.966Z,10.52
2023-04-21T08:56:03.125Z,11.40
2023-04-21T08:58:36.955Z,11.70
2023-04-21T09:01:03.809Z,9.68
2023-04-21T09:03:31.323Z,8.82
2023-04-21T09:06:05.461Z,9.75
2023-04-21T09:08:33.414Z,9.85
2023-04-21T09:11:01.437Z,9.40
2023-04-21T09:13:36.326Z,8.95
2023-04-21T09:16:08.570Z,8.18
2023-04-21T09:18:40.167Z,8.52
2023-04-21T09:21:10.025Z,11.60
2023-04-21T09:23:41.487Z,9.32
2023-04-21T09:26:09.432Z,8.13
2023-04-21T09:28:37.335Z,8.70
2023-04-21T09:31:04.655Z,7.05
2023-04-21T09:33:45.728Z,10.80
2023-04-21T09:36:24.754Z,8.60
2023-04-21T09:39:03.720Z,10.63
2023-04-21T09:41:43.398Z,9.30
2023-04-21T09:44:10.144Z,9.07
2023-04-21T09:46:37.628Z,9.18
2023-04-21T09:49:06.388Z,7.80
2023-04-21T09:54:28.417Z,11.38
2023-04-21T09:57:02.245Z,9.40
2023-04-21T09:59:36.961Z,8.75
2023-04-21T10:02:07.094Z,8.50
2023-04-21T10:04:36.252Z,7.93
2023-04-21T10:07:03.598Z,8.70
2023-04-21T10:09:57.911Z,10.07
2023-04-21T10:12:25.905Z,10.13
2023-04-21T10:14:53.832Z,10.77
2023-04-21T10:17:24.865Z,9.35
2023-04-21T10:19:57.549Z,8.50
2023-04-21T10:22:34.690Z,10.77
2023-04-21T10:25:03.814Z,13.52
2023-04-21T10:27:38.846Z,9.25
2023-04-21T10:30:20.100Z,8.80
2023-04-21T10:32:47.285Z,9.00
2023-04-21T10:35:23.081Z,9.35
2023-04-21T10:37:53.901Z,14.32
2023-04-21T10:40:43.223Z,8.75
2023-04-21T10:43:42.721Z,8.65
2023-04-21T10:46:31.959Z,9.35
2023-04-21T10:49:06.950Z,10.30
2023-04-21T10:51:54.076Z,12.05
2023-04-21T10:54:27.787Z,9.23
2023-04-21T10:56:59.225Z,10.75
2023-04-21T10:59:29.152Z,11.65
2023-04-21T11:01:56.065Z,10.35
2023-04-21T11:04:24.121Z,9.05
2023-04-21T11:07:19.161Z,10.35
2023-04-21T11:09:48.060Z,8.98
2023-04-21T11:12:18.920Z,7.38
2023-04-21T11:14:48.057Z,12.63
2023-04-21T11:17:19.927Z,9.13
2023-04-21T11:19:49.579Z,8.45
2023-04-21T11:22:18.099Z,8.73
2023-04-21T11:24:46.565Z,6.05
2023-04-21T11:27:17.810Z,6.72
2023-04-21T11:29:47.394Z,7.65
2023-04-21T11:32:15.346Z,7.57
2023-04-21T11:34:42.620Z,7.68
2023-04-21T11:37:16.876Z,7.97
2023-04-21T11:39:44.302Z,6.43
2023-04-21T11:42:14.128Z,6.72
2023-04-21T11:44:43.179Z,6.80
2023-04-21T11:47:29.057Z,7.63
2023-04-21T11:49:58.207Z,5.90
2023-04-21T11:52:26.550Z,5.82
2023-04-21T11:55:01.925Z,6.70
2023-04-21T11:57:31.192Z,7.97
2023-04-21T12:00:16.177Z,9.27
2023-04-21T12:02:43.870Z,5.88
2023-04-21T12:05:12.616Z,9.23
2023-04-21T12:07:43.250Z,5.65
2023-04-21T12:10:16.697Z,7.07
2023-04-21T12:15:12.783Z,6.18
2023-04-21T12:17:48.055Z,7.05
2023-04-21T12:20:19.798Z,6.38
2023-04-21T12:22:47.572Z,5.88
2023-04-21T12:25:14.894Z,5.03
2023-04-21T12:27:49.372Z,7.38
2023-04-21T12:30:17.014Z,5.85
2023-04-21T12:32:43.869Z,5.53
2023-04-21T12:35:11.262Z,5.40
2023-04-21T12:37:38.295Z,6.15
2023-04-21T12:40:05.716Z,5.95
2023-04-21T12:42:34.269Z,7.82
2023-04-21T12:45:03.112Z,5.05
2023-04-21T12:47:31.452Z,5.43
2023-04-21T12:49:58.206Z,5.90
2023-04-21T12:52:26.133Z,5.47
2023-04-21T12:54:52.910Z,6.78
2023-04-21T12:57:20.962Z,6.10
2023-04-21T12:59:48.276Z,4.95
2023-04-21T13:02:15.355Z,10.98
2023-04-21T13:04:42.607Z,5.90
2023-04-21T13:07:09.811Z,5.50
2023-04-21T13:09:36.580Z,5.47
2023-04-21T13:12:03.851Z,5.72
2023-04-21T13:14:30.712Z,6.65
2023-04-21T13:16:57.614Z,5.93
2023-04-21T13:19:24.925Z,5.35
2023-04-21T13:21:54.212Z,5.90
2023-04-21T13:24:21.772Z,4.85
2023-04-21T13:26:48.809Z,5.18
2023-04-21T13:29:16.020Z,4.93
2023-04-21T13:31:43.098Z,4.82
2023-04-21T13:34:10.393Z,5.57
2023-04-21T13:36:37.238Z,5.93
2023-04-21T13:39:05.529Z,5.65
2023-04-21T13:41:32.503Z,5.97
2023-04-21T13:43:59.351Z,6.13
2023-04-21T13:46:26.217Z,5.22
2023-04-21T13:48:53.111Z,4.60
2023-04-21T13:51:20.921Z,5.35
2023-04-21T13:53:48.003Z,5.18
2023-04-21T13:56:15.680Z,5.30
2023-04-21T13:58:43.121Z,5.07
2023-04-21T14:01:09.919Z,5.35
2023-04-21T14:03:36.835Z,4.93
2023-04-21T14:06:04.230Z,6.03
2023-04-21T14:08:31.331Z,4.95
2023-04-21T14:10:58.404Z,4.63
2023-04-21T14:13:36.076Z,4.85
2023-04-21T14:16:04.870Z,4.55
2023-04-21T14:18:33.507Z,4.20
2023-04-21T14:21:00.460Z,6.15
2023-04-21T14:23:27.242Z,4.53
2023-04-21T14:25:55.117Z,4.53
2023-04-21T14:28:22.714Z,5.00
2023-04-21T14:30:49.458Z,5.13
2023-04-21T14:33:16.298Z,5.05
2023-04-21T14:35:43.114Z,5.50
2023-04-21T14:38:10.360Z,4.40
2023-04-21T14:40:37.126Z,4.38
2023-04-21T14:43:04.102Z,4.13
2023-04-21T14:45:31.029Z,4.90
2023-04-21T14:47:58.396Z,4.47
2023-04-21T14:50:25.261Z,5.47
2023-04-21T14:52:52.015Z,4.18
2023-04-21T14:55:19.134Z,4.75
2023-04-21T14:57:47.309Z,4.75
2023-04-21T15:00:15.301Z,4.22
2023-04-21T15:02:42.649Z,7.63
2023-04-21T15:05:10.109Z,4.60
2023-04-21T15:07:37.005Z,5.30
2023-04-21T15:10:04.036Z,7.03
2023-04-21T15:12:30.840Z,4.55
2023-04-21T15:14:57.578Z,7.50
2023-04-21T15:17:24.378Z,7.10
2023-04-21T15:19:51.503Z,6.43
2023-04-21T15:22:19.095Z,4.45
2023-04-21T15:24:46.302Z,4.35
2023-04-21T15:27:13.044Z,4.72
2023-04-21T15:29:40.001Z,5.93
2023-04-21T15:32:06.757Z,3.95
2023-04-21T15:34:33.496Z,4.80
2023-04-21T15:37:00.669Z,5.65
2023-04-21T15:39:27.469Z,3.67
2023-04-21T15:42:00.366Z,5.07
2023-04-21T15:44:27.287Z,4.80
2023-04-21T15:46:55.388Z,5.30
2023-04-21T15:49:24.504Z,4.43
2023-04-21T15:51:52.718Z,5.03
2023-04-21T15:54:19.509Z,5.57
2023-04-21T15:56:46.242Z,5.93
2023-04-21T15:59:13.100Z,4.70
2023-04-21T16:01:40.115Z,5.28
2023-04-21T16:04:07.303Z,4.47
2023-04-21T16:06:34.942Z,6.68
2023-04-21T16:09:01.855Z,17.40
2023-04-21T16:11:29.313Z,5.88
2023-04-21T16:13:56.516Z,6.80
2023-04-21T16:16:23.920Z,6.57
2023-04-21T16:18:51.074Z,6.07
2023-04-21T16:21:17.910Z,6.43
2023-04-21T16:23:45.335Z,7.78
2023-04-21T16:26:12.212Z,25.50
2023-04-21T16:28:38.966Z,7.75
2023-04-21T16:31:05.832Z,8.93
2023-04-21T16:33:32.712Z,6.57
2023-04-21T16:35:59.431Z,9.85
2023-04-21T16:38:26.195Z,7.15
2023-04-21T16:40:52.955Z,5.00
2023-04-21T16:43:19.696Z,5.10
2023-04-21T16:45:46.762Z,6.18
2023-04-21T16:48:13.784Z,5.60
2023-04-21T16:50:41.893Z,5.10
2023-04-21T16:53:09.103Z,7.63
2023-04-21T16:55:37.147Z,4.78
2023-04-21T16:58:04.088Z,6.63
2023-04-21T17:00:30.870Z,5.10
2023-04-21T17:02:57.835Z,4.78
2023-04-21T17:05:24.779Z,65.03
2023-04-21T17:07:51.570Z,11.68
2023-04-21T17:10:18.730Z,7.28
2023-04-21T17:12:46.199Z,7.68
2023-04-21T17:15:13.498Z,6.82
2023-04-21T17:17:43.015Z,6.38
2023-04-21T17:20:12.003Z,7.13
2023-04-21T17:22:39.572Z,5.15
2023-04-21T17:25:07.304Z,5.07
2023-04-21T17:27:36.537Z,6.88
2023-04-21T17:30:04.786Z,6.25
2023-04-21T17:32:33.655Z,6.70
2023-04-21T17:35:02.914Z,5.10
2023-04-21T17:37:30.508Z,5.53
2023-04-21T17:39:59.794Z,7.85
2023-04-21T17:42:29.282Z,6.65
2023-04-21T17:44:56.043Z,5.75
2023-04-21T17:47:22.967Z,5.88
2023-04-21T17:49:49.793Z,7.72
2023-04-21T17:52:17.267Z,6.90
2023-04-21T17:54:44.293Z,7.30
2023-04-21T17:57:11.802Z,8.73
2023-04-21T17:59:39.219Z,6.75
2023-04-21T18:02:06.755Z,6.15
2023-04-21T18:04:34.545Z,6.63
2023-04-21T18:07:02.240Z,6.30
2023-04-21T18:09:29.117Z,7.15
2023-04-21T18:11:57.008Z,5.00
2023-04-21T18:14:24.544Z,7.38
2023-04-21T18:16:51.453Z,6.63
2023-04-21T18:19:18.466Z,6.53
2023-04-21T18:21:45.763Z,6.72
2023-04-21T18:24:12.556Z,8.13
2023-04-21T18:26:39.448Z,7.90
2023-04-21T18:29:06.273Z,6.28
2023-04-21T18:31:33.525Z,7.30
2023-04-21T18:34:00.681Z,7.35
2023-04-21T18:36:30.009Z,7.07
2023-04-21T18:38:58.628Z,8.63
2023-04-21T18:41:27.405Z,9.52
2023-04-21T18:43:54.471Z,7.10
2023-04-21T18:46:22.062Z,7.45
2023-04-21T18:48:49.009Z,7.15
2023-04-21T18:51:15.947Z,10.57
2023-04-21T18:53:43.281Z,8.80
2023-04-21T18:56:10.687Z,6.70
2023-04-21T18:58:37.653Z,7.50
2023-04-21T19:01:04.617Z,10.05
2023-04-21T19:03:31.779Z,6.95
2023-04-21T19:05:58.861Z,7.95
2023-04-21T19:08:40.753Z,8.45
2023-04-21T19:11:10.076Z,7.25
2023-04-21T19:13:37.288Z,7.63
2023-04-21T19:16:04.993Z,8.60
2023-04-21T19:18:32.065Z,8.52
2023-04-21T19:20:59.152Z,6.10
2023-04-21T19:23:25.931Z,7.57
2023-04-21T19:25:55.001Z,11.80
2023-04-21T19:28:21.797Z,7.65
2023-04-21T19:30:48.936Z,13.13
2023-04-21T19:33:16.285Z,10.25
2023-04-21T19:35:43.264Z,8.15
2023-04-21T19:38:10.348Z,11.75
2023-04-21T19:40:37.221Z,8.77
2023-04-21T19:43:04.796Z,8.60
2023-04-21T19:45:32.084Z,7.93
2023-04-21T19:47:58.879Z,7.38
2023-04-21T19:50:25.851Z,9.02
2023-04-21T19:52:52.702Z,10.05
2023-04-21T19:55:19.512Z,6.30
2023-04-21T19:57:46.512Z,7.70
2023-04-21T20:00:14.135Z,7.40
2023-04-21T20:02:41.179Z,9.40
2023-04-21T20:05:09.301Z,10.23
2023-04-21T20:07:37.165Z,8.43
2023-04-21T20:10:06.238Z,8.35
2023-04-21T20:12:33.718Z,10.90
2023-04-21T20:15:01.212Z,9.15
2023-04-21T20:17:28.949Z,9.32
2023-04-21T20:19:55.867Z,9.95
2023-04-21T20:22:22.856Z,9.35
2023-04-21T20:24:52.065Z,9.95
2023-04-21T20:27:19.458Z,8.68
2023-04-21T20:29:46.876Z,9.32
2023-04-21T20:32:14.278Z,10.52
2023-04-21T20:34:41.395Z,8.93
2023-04-21T20:37:10.600Z,11.45
2023-04-21T20:39:41.381Z,8.40
2023-04-21T20:42:12.985Z,12.13
2023-04-21T20:44:42.098Z,9.43
2023-04-21T20:47:10.723Z,8.40
2023-04-21T20:49:38.237Z,7.55
2023-04-21T20:52:05.658Z,10.55
2023-04-21T20:54:34.619Z,10.55
2023-04-21T20:57:02.195Z,10.05
2023-04-21T20:59:29.128Z,13.65
2023-04-21T21:01:55.925Z,8.48
2023-04-21T21:04:23.081Z,10.85
2023-04-21T21:06:50.046Z,11.73
2023-04-21T21:09:18.778Z,10.15
2023-04-21T21:11:45.708Z,8.95
2023-04-21T21:14:13.243Z,7.40
2023-04-21T21:16:40.403Z,9.00
2023-04-21T21:19:07.269Z,8.57
2023-04-21T21:21:34.047Z,9.63
2023-04-21T21:24:00.791Z,10.77
2023-04-21T21:26:27.639Z,9.20
2023-04-21T21:28:54.371Z,7.78
2023-04-21T21:31:21.598Z,7.22
2023-04-21T21:33:48.593Z,9.68
2023-04-21T21:36:15.528Z,9.48
2023-04-21T21:38:42.389Z,9.40
2023-04-21T21:41:12.085Z,10.75
2023-04-21T21:43:38.969Z,8.40
2023-04-21T21:46:06.256Z,8.65
2023-04-21T21:48:33.060Z,11.88
2023-04-21T21:50:59.806Z,8.07
2023-04-21T21:53:27.378Z,10.52
2023-04-21T21:55:54.199Z,9.48
2023-04-21T21:58:21.883Z,8.25
2023-04-21T22:00:51.851Z,7.93
2023-04-21T22:03:19.728Z,10.18
2023-04-21T22:05:47.135Z,9.80
2023-04-21T22:08:15.656Z,9.73
2023-04-21T22:10:46.054Z,7.97
2023-04-21T22:13:13.155Z,9.95
2023-04-21T22:15:39.938Z,7.93
2023-04-21T22:18:07.952Z,8.82
2023-04-21T22:20:34.848Z,12.75
2023-04-21T22:23:01.623Z,9.20
2023-04-21T22:25:28.778Z,8.00
2023-04-21T22:27:58.655Z,8.68
2023-04-21T22:30:25.919Z,8.25
2023-04-21T22:32:52.979Z,8.98
2023-04-21T22:35:19.920Z,10.57
2023-04-21T22:37:47.277Z,8.93
2023-04-21T22:40:14.241Z,12.85
2023-04-21T22:42:41.096Z,8.23
2023-04-21T22:45:08.367Z,13.63
2023-04-21T22:47:35.304Z,7.88
2023-04-21T22:50:02.283Z,10.75
2023-04-21T22:52:30.164Z,8.27
2023-04-21T22:54:56.872Z,8.20
2023-04-21T22:57:23.826Z,11.35
2023-04-21T22:59:50.648Z,10.50
2023-04-21T23:02:17.536Z,10.65
2023-04-21T23:04:44.422Z,10.23
2023-04-21T23:07:11.176Z,9.85
2023-04-21T23:09:38.290Z,10.70
2023-04-21T23:12:06.148Z,10.30
2023-04-21T23:14:33.078Z,8.20
2023-04-21T23:16:59.929Z,7.63
2023-04-21T23:19:26.937Z,10.23
2023-04-21T23:21:53.775Z,11.45
2023-04-21T23:24:20.560Z,11.43
2023-04-21T23:26:47.735Z,10.50
2023-04-21T23:29:14.687Z,9.65
2023-04-21T23:31:41.497Z,10.55
2023-04-21T23:34:08.495Z,9.07
2023-04-21T23:36:35.803Z,9.05
2023-04-21T23:39:02.565Z,12.27
2023-04-21T23:41:29.578Z,10.73
2023-04-21T23:43:56.314Z,10.88
2023-04-21T23:46:23.075Z,10.48
2023-04-21T23:48:50.241Z,8.85
2023-04-21T23:51:17.093Z,8.18
2023-04-21T23:53:43.949Z,9.50
2023-04-21T23:56:10.777Z,8.40
2023-04-21T23:58:37.953Z,11.68
